sensor_id;sensor_type;location;lat;lon;timestamp;P1;durP1;ratioP1;P2;durP2;ratioP2
70467;SDS011;57934;51.532;7.684;2023-04-24T00:00:24;0.80;;;0.80;;
70467;SDS011;57934;51.532;7.684;2023-04-24T00:02:50;1.35;;;0.70;;
70467;SDS011;57934;51.532;7.684;2023-04-24T00:05:16;0.55;;;0.40;;
70467;SDS011;57934;51.532;7.684;2023-04-24T00:07:42;1.83;;;1.08;;
70467;SDS011;57934;51.532;7.684;2023-04-24T00:10:09;5.07;;;0.90;;
70467;SDS011;57934;51.532;7.684;2023-04-24T00:12:35;0.90;;;0.50;;
70467;SDS011;57934;51.532;7.684;2023-04-24T00:15:01;0.68;;;0.68;;
70467;SDS011;57934;51.532;7.684;2023-04-24T00:17:27;0.47;;;0.43;;
70467;SDS011;57934;51.532;7.684;2023-04-24T00:19:53;0.90;;;0.52;;
70467;SDS011;57934;51.532;7.684;2023-04-24T00:22:24;0.65;;;0.50;;
70467;SDS011;57934;51.532;7.684;2023-04-24T00:24:50;0.60;;;0.50;;
70467;SDS011;57934;51.532;7.684;2023-04-24T00:27:15;1.50;;;0.40;;
70467;SDS011;57934;51.532;7.684;2023-04-24T00:29:41;0.65;;;0.50;;
70467;SDS011;57934;51.532;7.684;2023-04-24T00:32:07;4.90;;;0.60;;
70467;SDS011;57934;51.532;7.684;2023-04-24T00:34:33;0.95;;;0.40;;
70467;SDS011;57934;51.532;7.684;2023-04-24T00:36:58;0.50;;;0.50;;
70467;SDS011;57934;51.532;7.684;2023-04-24T00:39:24;0.77;;;0.50;;
70467;SDS011;57934;51.532;7.684;2023-04-24T00:41:50;0.85;;;0.60;;
70467;SDS011;57934;51.532;7.684;2023-04-24T00:44:16;0.50;;;0.50;;
70467;SDS011;57934;51.532;7.684;2023-04-24T00:46:42;1.10;;;0.50;;
70467;SDS011;57934;51.532;7.684;2023-04-24T00:49:08;2.67;;;0.50;;
70467;SDS011;57934;51.532;7.684;2023-04-24T00:51:34;1.80;;;0.57;;
70467;SDS011;57934;51.532;7.684;2023-04-24T00:54:02;0.50;;;0.50;;
70467;SDS011;57934;51.532;7.684;2023-04-24T00:56:28;1.10;;;0.88;;
70467;SDS011;57934;51.532;7.684;2023-04-24T00:58:54;0.77;;;0.70;;
70467;SDS011;57934;51.532;7.684;2023-04-24T01:01:21;0.80;;;0.80;;
70467;SDS011;57934;51.532;7.684;2023-04-24T01:03:47;1.17;;;0.70;;
70467;SDS011;57934;51.532;7.684;2023-04-24T01:06:14;0.63;;;0.63;;
70467;SDS011;57934;51.532;7.684;2023-04-24T01:08:40;0.85;;;0.85;;
70467;SDS011;57934;51.532;7.684;2023-04-24T01:11:06;1.45;;;0.93;;
70467;SDS011;57934;51.532;7.684;2023-04-24T01:13:33;0.95;;;0.77;;
70467;SDS011;57934;51.532;7.684;2023-04-24T01:15:59;1.10;;;1.02;;
70467;SDS011;57934;51.532;7.684;2023-04-24T01:18:26;1.23;;;1.00;;
70467;SDS011;57934;51.532;7.684;2023-04-24T01:20:53;2.60;;;1.05;;
70467;SDS011;57934;51.532;7.684;2023-04-24T01:23:23;1.30;;;1.20;;
70467;SDS011;57934;51.532;7.684;2023-04-24T01:25:50;2.15;;;1.38;;
70467;SDS011;57934;51.532;7.684;2023-04-24T01:28:17;3.08;;;1.38;;
70467;SDS011;57934;51.532;7.684;2023-04-24T01:30:43;3.92;;;1.45;;
70467;SDS011;57934;51.532;7.684;2023-04-24T01:33:09;2.15;;;1.30;;
70467;SDS011;57934;51.532;7.684;2023-04-24T01:35:36;1.25;;;1.23;;
70467;SDS011;57934;51.532;7.684;2023-04-24T01:38:02;3.42;;;1.20;;
70467;SDS011;57934;51.532;7.684;2023-04-24T01:40:28;1.48;;;1.38;;
70467;SDS011;57934;51.532;7.684;2023-04-24T01:42:57;3.60;;;1.15;;
70467;SDS011;57934;51.532;7.684;2023-04-24T01:45:23;2.83;;;1.42;;
70467;SDS011;57934;51.532;7.684;2023-04-24T01:47:48;2.50;;;1.33;;
70467;SDS011;57934;51.532;7.684;2023-04-24T01:50:16;1.80;;;1.42;;
70467;SDS011;57934;51.532;7.684;2023-04-24T01:52:42;2.17;;;1.50;;
70467;SDS011;57934;51.532;7.684;2023-04-24T01:55:09;3.20;;;1.20;;
70467;SDS011;57934;51.532;7.684;2023-04-24T01:57:35;3.47;;;1.63;;
70467;SDS011;57934;51.532;7.684;2023-04-24T02:00:01;2.03;;;1.60;;
70467;SDS011;57934;51.532;7.684;2023-04-24T02:02:39;2.03;;;1.85;;
70467;SDS011;57934;51.532;7.684;2023-04-24T02:05:05;3.03;;;2.00;;
70467;SDS011;57934;51.532;7.684;2023-04-24T02:07:35;1.95;;;1.80;;
70467;SDS011;57934;51.532;7.684;2023-04-24T02:10:01;2.30;;;2.10;;
70467;SDS011;57934;51.532;7.684;2023-04-24T02:12:27;2.58;;;1.83;;
70467;SDS011;57934;51.532;7.684;2023-04-24T02:14:52;2.75;;;2.10;;
70467;SDS011;57934;51.532;7.684;2023-04-24T02:17:18;2.65;;;2.10;;
70467;SDS011;57934;51.532;7.684;2023-04-24T02:19:44;3.78;;;1.98;;
70467;SDS011;57934;51.532;7.684;2023-04-24T02:22:11;2.58;;;2.38;;
70467;SDS011;57934;51.532;7.684;2023-04-24T02:24:37;5.35;;;2.55;;
70467;SDS011;57934;51.532;7.684;2023-04-24T02:27:02;2.65;;;2.25;;
70467;SDS011;57934;51.532;7.684;2023-04-24T02:29:28;2.20;;;2.00;;
70467;SDS011;57934;51.532;7.684;2023-04-24T02:31:54;3.60;;;2.22;;
70467;SDS011;57934;51.532;7.684;2023-04-24T02:34:20;2.30;;;2.10;;
70467;SDS011;57934;51.532;7.684;2023-04-24T02:36:45;2.65;;;2.00;;
70467;SDS011;57934;51.532;7.684;2023-04-24T02:39:11;3.97;;;2.22;;
70467;SDS011;57934;51.532;7.684;2023-04-24T02:41:39;3.50;;;2.17;;
70467;SDS011;57934;51.532;7.684;2023-04-24T02:44:05;3.40;;;2.10;;
70467;SDS011;57934;51.532;7.684;2023-04-24T02:46:30;3.35;;;2.50;;
70467;SDS011;57934;51.532;7.684;2023-04-24T02:48:56;3.08;;;2.78;;
70467;SDS011;57934;51.532;7.684;2023-04-24T02:51:22;2.90;;;2.42;;
70467;SDS011;57934;51.532;7.684;2023-04-24T02:53:48;3.67;;;2.67;;
70467;SDS011;57934;51.532;7.684;2023-04-24T02:56:13;4.97;;;3.10;;
70467;SDS011;57934;51.532;7.684;2023-04-24T02:58:39;2.58;;;2.35;;
70467;SDS011;57934;51.532;7.684;2023-04-24T03:01:05;3.40;;;2.50;;
70467;SDS011;57934;51.532;7.684;2023-04-24T03:03:31;2.97;;;2.60;;
70467;SDS011;57934;51.532;7.684;2023-04-24T03:05:57;4.68;;;2.60;;
70467;SDS011;57934;51.532;7.684;2023-04-24T03:08:24;2.80;;;2.60;;
70467;SDS011;57934;51.532;7.684;2023-04-24T03:10:49;3.22;;;2.75;;
70467;SDS011;57934;51.532;7.684;2023-04-24T03:13:15;4.00;;;3.00;;
70467;SDS011;57934;51.532;7.684;2023-04-24T03:15:41;3.42;;;2.63;;
70467;SDS011;57934;51.532;7.684;2023-04-24T03:18:07;3.78;;;2.97;;
70467;SDS011;57934;51.532;7.684;2023-04-24T03:20:33;3.30;;;2.85;;
70467;SDS011;57934;51.532;7.684;2023-04-24T03:22:59;3.30;;;2.97;;
70467;SDS011;57934;51.532;7.684;2023-04-24T03:25:25;4.20;;;3.78;;
70467;SDS011;57934;51.532;7.684;2023-04-24T03:27:51;4.50;;;4.10;;
70467;SDS011;57934;51.532;7.684;2023-04-24T03:30:33;5.50;;;5.00;;
70467;SDS011;57934;51.532;7.684;2023-04-24T03:33:00;5.45;;;4.40;;
70467;SDS011;57934;51.532;7.684;2023-04-24T03:35:29;7.53;;;4.45;;
70467;SDS011;57934;51.532;7.684;2023-04-24T03:37:58;6.25;;;5.65;;
70467;SDS011;57934;51.532;7.684;2023-04-24T03:40:46;10.25;;;6.90;;
70467;SDS011;57934;51.532;7.684;2023-04-24T03:43:47;9.77;;;6.85;;
70467;SDS011;57934;51.532;7.684;2023-04-24T03:46:14;11.30;;;7.68;;
70467;SDS011;57934;51.532;7.684;2023-04-24T03:48:45;10.85;;;7.72;;
70467;SDS011;57934;51.532;7.684;2023-04-24T03:51:11;14.25;;;8.43;;
70467;SDS011;57934;51.532;7.684;2023-04-24T03:53:39;14.93;;;8.75;;
70467;SDS011;57934;51.532;7.684;2023-04-24T03:56:06;10.30;;;8.32;;
70467;SDS011;57934;51.532;7.684;2023-04-24T03:58:32;13.77;;;9.68;;
70467;SDS011;57934;51.532;7.684;2023-04-24T04:00:59;14.20;;;10.48;;
70467;SDS011;57934;51.532;7.684;2023-04-24T04:03:46;14.02;;;9.75;;
70467;SDS011;57934;51.532;7.684;2023-04-24T04:06:13;14.75;;;11.20;;
70467;SDS011;57934;51.532;7.684;2023-04-24T04:08:39;17.10;;;12.88;;
70467;SDS011;57934;51.532;7.684;2023-04-24T04:11:05;18.60;;;12.60;;
70467;SDS011;57934;51.532;7.684;2023-04-24T04:13:30;21.67;;;13.55;;
70467;SDS011;57934;51.532;7.684;2023-04-24T04:15:57;19.38;;;12.48;;
70467;SDS011;57934;51.532;7.684;2023-04-24T04:18:22;20.85;;;13.23;;
70467;SDS011;57934;51.532;7.684;2023-04-24T04:20:48;15.07;;;11.15;;
70467;SDS011;57934;51.532;7.684;2023-04-24T04:23:15;15.63;;;11.55;;
70467;SDS011;57934;51.532;7.684;2023-04-24T04:26:03;16.98;;;10.90;;
70467;SDS011;57934;51.532;7.684;2023-04-24T04:28:42;14.60;;;9.68;;
70467;SDS011;57934;51.532;7.684;2023-04-24T04:31:11;13.40;;;9.98;;
70467;SDS011;57934;51.532;7.684;2023-04-24T04:33:37;16.38;;;11.18;;
70467;SDS011;57934;51.532;7.684;2023-04-24T04:36:05;14.85;;;10.10;;
70467;SDS011;57934;51.532;7.684;2023-04-24T04:38:34;15.20;;;10.32;;
70467;SDS011;57934;51.532;7.684;2023-04-24T04:41:10;11.35;;;9.90;;
70467;SDS011;57934;51.532;7.684;2023-04-24T04:43:36;12.25;;;9.88;;
70467;SDS011;57934;51.532;7.684;2023-04-24T04:46:03;16.58;;;10.23;;
70467;SDS011;57934;51.532;7.684;2023-04-24T04:48:47;14.13;;;10.13;;
70467;SDS011;57934;51.532;7.684;2023-04-24T04:51:14;16.45;;;9.88;;
70467;SDS011;57934;51.532;7.684;2023-04-24T04:53:39;14.18;;;10.55;;
70467;SDS011;57934;51.532;7.684;2023-04-24T04:56:06;12.88;;;9.82;;
70467;SDS011;57934;51.532;7.684;2023-04-24T04:58:43;15.15;;;9.68;;
70467;SDS011;57934;51.532;7.684;2023-04-24T05:01:12;11.15;;;9.63;;
70467;SDS011;57934;51.532;7.684;2023-04-24T05:03:41;12.30;;;9.02;;
70467;SDS011;57934;51.532;7.684;2023-04-24T05:06:09;12.63;;;9.70;;
70467;SDS011;57934;51.532;7.684;2023-04-24T05:08:37;15.27;;;10.20;;
70467;SDS011;57934;51.532;7.684;2023-04-24T05:11:06;14.50;;;10.65;;
70467;SDS011;57934;51.532;7.684;2023-04-24T05:13:32;14.32;;;10.18;;
70467;SDS011;57934;51.532;7.684;2023-04-24T05:15:59;12.35;;;9.60;;
70467;SDS011;57934;51.532;7.684;2023-04-24T05:18:25;16.58;;;10.80;;
70467;SDS011;57934;51.532;7.684;2023-04-24T05:20:51;13.27;;;10.50;;
70467;SDS011;57934;51.532;7.684;2023-04-24T05:23:17;17.40;;;10.85;;
70467;SDS011;57934;51.532;7.684;2023-04-24T05:25:46;17.60;;;11.63;;
70467;SDS011;57934;51.532;7.684;2023-04-24T05:28:13;18.80;;;12.05;;
70467;SDS011;57934;51.532;7.684;2023-04-24T05:30:39;18.40;;;12.75;;
70467;SDS011;57934;51.532;7.684;2023-04-24T05:33:06;19.02;;;13.45;;
70467;SDS011;57934;51.532;7.684;2023-04-24T05:35:34;15.75;;;12.02;;
70467;SDS011;57934;51.532;7.684;2023-04-24T05:38:00;14.93;;;12.02;;
70467;SDS011;57934;51.532;7.684;2023-04-24T05:40:27;17.92;;;11.20;;
70467;SDS011;57934;51.532;7.684;2023-04-24T05:42:53;13.13;;;10.82;;
70467;SDS011;57934;51.532;7.684;2023-04-24T05:45:20;14.13;;;10.88;;
70467;SDS011;57934;51.532;7.684;2023-04-24T05:47:46;14.18;;;10.35;;
70467;SDS011;57934;51.532;7.684;2023-04-24T05:50:11;11.07;;;8.77;;
70467;SDS011;57934;51.532;7.684;2023-04-24T05:52:37;12.27;;;9.15;;
70467;SDS011;57934;51.532;7.684;2023-04-24T05:55:10;10.50;;;8.13;;
70467;SDS011;57934;51.532;7.684;2023-04-24T05:57:38;11.65;;;8.63;;
70467;SDS011;57934;51.532;7.684;2023-04-24T06:00:04;13.30;;;8.85;;
70467;SDS011;57934;51.532;7.684;2023-04-24T06:02:39;13.85;;;8.02;;
70467;SDS011;57934;51.532;7.684;2023-04-24T06:05:05;9.75;;;7.28;;
70467;SDS011;57934;51.532;7.684;2023-04-24T06:07:31;9.55;;;7.90;;
70467;SDS011;57934;51.532;7.684;2023-04-24T06:09:59;10.68;;;7.63;;
70467;SDS011;57934;51.532;7.684;2023-04-24T06:12:25;8.93;;;7.40;;
70467;SDS011;57934;51.532;7.684;2023-04-24T06:14:59;8.10;;;6.75;;
70467;SDS011;57934;51.532;7.684;2023-04-24T06:17:37;10.85;;;7.10;;
70467;SDS011;57934;51.532;7.684;2023-04-24T06:20:04;9.20;;;6.43;;
70467;SDS011;57934;51.532;7.684;2023-04-24T06:22:31;11.23;;;7.05;;
70467;SDS011;57934;51.532;7.684;2023-04-24T06:24:57;10.25;;;6.75;;
70467;SDS011;57934;51.532;7.684;2023-04-24T06:27:23;9.88;;;7.40;;
70467;SDS011;57934;51.532;7.684;2023-04-24T06:29:49;11.35;;;7.63;;
70467;SDS011;57934;51.532;7.684;2023-04-24T06:32:23;8.18;;;7.28;;
70467;SDS011;57934;51.532;7.684;2023-04-24T06:34:50;9.30;;;6.90;;
70467;SDS011;57934;51.532;7.684;2023-04-24T06:37:16;8.13;;;7.07;;
70467;SDS011;57934;51.532;7.684;2023-04-24T06:39:42;10.73;;;6.85;;
70467;SDS011;57934;51.532;7.684;2023-04-24T06:42:08;8.18;;;6.80;;
70467;SDS011;57934;51.532;7.684;2023-04-24T06:44:35;9.88;;;6.85;;
70467;SDS011;57934;51.532;7.684;2023-04-24T06:47:09;9.90;;;6.78;;
70467;SDS011;57934;51.532;7.684;2023-04-24T06:49:36;9.57;;;5.93;;
70467;SDS011;57934;51.532;7.684;2023-04-24T06:52:03;7.35;;;5.93;;
70467;SDS011;57934;51.532;7.684;2023-04-24T06:54:29;6.50;;;5.25;;
70467;SDS011;57934;51.532;7.684;2023-04-24T06:56:54;6.63;;;4.65;;
70467;SDS011;57934;51.532;7.684;2023-04-24T06:59:20;4.65;;;4.25;;
70467;SDS011;57934;51.532;7.684;2023-04-24T07:01:47;4.70;;;4.30;;
70467;SDS011;57934;51.532;7.684;2023-04-24T07:04:12;4.07;;;3.70;;
70467;SDS011;57934;51.532;7.684;2023-04-24T07:06:38;4.88;;;3.53;;
70467;SDS011;57934;51.532;7.684;2023-04-24T07:09:04;5.22;;;3.40;;
70467;SDS011;57934;51.532;7.684;2023-04-24T07:11:30;4.18;;;3.78;;
70467;SDS011;57934;51.532;7.684;2023-04-24T07:13:56;4.22;;;3.58;;
70467;SDS011;57934;51.532;7.684;2023-04-24T07:16:21;4.50;;;3.20;;
70467;SDS011;57934;51.532;7.684;2023-04-24T07:18:47;3.55;;;3.22;;
70467;SDS011;57934;51.532;7.684;2023-04-24T07:21:13;3.65;;;3.35;;
70467;SDS011;57934;51.532;7.684;2023-04-24T07:23:39;5.00;;;3.80;;
70467;SDS011;57934;51.532;7.684;2023-04-24T07:26:06;3.92;;;3.60;;
70467;SDS011;57934;51.532;7.684;2023-04-24T07:28:32;3.97;;;3.55;;
70467;SDS011;57934;51.532;7.684;2023-04-24T07:30:58;3.88;;;3.55;;
70467;SDS011;57934;51.532;7.684;2023-04-24T07:33:28;4.28;;;3.70;;
70467;SDS011;57934;51.532;7.684;2023-04-24T07:35:54;4.32;;;3.92;;
70467;SDS011;57934;51.532;7.684;2023-04-24T07:38:20;4.25;;;3.85;;
70467;SDS011;57934;51.532;7.684;2023-04-24T07:40:47;3.80;;;3.35;;
70467;SDS011;57934;51.532;7.684;2023-04-24T07:43:13;4.72;;;3.60;;
70467;SDS011;57934;51.532;7.684;2023-04-24T07:45:39;4.47;;;3.42;;
70467;SDS011;57934;51.532;7.684;2023-04-24T07:48:05;4.72;;;4.22;;
70467;SDS011;57934;51.532;7.684;2023-04-24T07:50:31;5.22;;;3.63;;
70467;SDS011;57934;51.532;7.684;2023-04-24T07:52:57;3.67;;;3.28;;
70467;SDS011;57934;51.532;7.684;2023-04-24T07:55:22;4.00;;;3.60;;
70467;SDS011;57934;51.532;7.684;2023-04-24T07:57:48;4.25;;;3.53;;
70467;SDS011;57934;51.532;7.684;2023-04-24T08:00:14;5.97;;;3.85;;
70467;SDS011;57934;51.532;7.684;2023-04-24T08:02:40;3.95;;;3.40;;
70467;SDS011;57934;51.532;7.684;2023-04-24T08:05:05;4.03;;;3.38;;
70467;SDS011;57934;51.532;7.684;2023-04-24T08:07:31;4.22;;;3.55;;
70467;SDS011;57934;51.532;7.684;2023-04-24T08:09:57;3.67;;;3.38;;
70467;SDS011;57934;51.532;7.684;2023-04-24T08:12:24;3.47;;;2.58;;
70467;SDS011;57934;51.532;7.684;2023-04-24T08:14:50;2.50;;;2.30;;
70467;SDS011;57934;51.532;7.684;2023-04-24T08:17:16;2.92;;;2.53;;
70467;SDS011;57934;51.532;7.684;2023-04-24T08:19:42;2.63;;;2.42;;
70467;SDS011;57934;51.532;7.684;2023-04-24T08:22:13;2.80;;;2.40;;
70467;SDS011;57934;51.532;7.684;2023-04-24T08:24:39;3.35;;;3.05;;
70467;SDS011;57934;51.532;7.684;2023-04-24T08:27:05;3.10;;;2.90;;
70467;SDS011;57934;51.532;7.684;2023-04-24T08:29:30;3.05;;;2.58;;
70467;SDS011;57934;51.532;7.684;2023-04-24T08:31:56;3.60;;;2.40;;
70467;SDS011;57934;51.532;7.684;2023-04-24T08:34:22;2.65;;;2.00;;
70467;SDS011;57934;51.532;7.684;2023-04-24T08:36:48;3.80;;;2.10;;
70467;SDS011;57934;51.532;7.684;2023-04-24T08:39:14;2.53;;;2.33;;
70467;SDS011;57934;51.532;7.684;2023-04-24T08:41:41;2.53;;;2.10;;
70467;SDS011;57934;51.532;7.684;2023-04-24T08:44:09;2.78;;;2.35;;
70467;SDS011;57934;51.532;7.684;2023-04-24T08:46:35;2.47;;;2.22;;
70467;SDS011;57934;51.532;7.684;2023-04-24T09:22:05;1.33;;;1.15;;
70467;SDS011;57934;51.532;7.684;2023-04-24T09:24:32;1.65;;;1.00;;
70467;SDS011;57934;51.532;7.684;2023-04-24T09:26:58;2.67;;;1.20;;
70467;SDS011;57934;51.532;7.684;2023-04-24T09:29:29;1.65;;;1.50;;
70467;SDS011;57934;51.532;7.684;2023-04-24T09:31:55;2.95;;;1.33;;
70467;SDS011;57934;51.532;7.684;2023-04-24T09:34:21;4.38;;;2.20;;
70467;SDS011;57934;51.532;7.684;2023-04-24T09:36:48;1.98;;;1.88;;
70467;SDS011;57934;51.532;7.684;2023-04-24T09:39:14;2.78;;;2.30;;
70467;SDS011;57934;51.532;7.684;2023-04-24T09:41:52;2.45;;;2.15;;
70467;SDS011;57934;51.532;7.684;2023-04-24T09:45:15;5.15;;;1.98;;
70467;SDS011;57934;51.532;7.684;2023-04-24T09:47:41;3.05;;;2.10;;
70467;SDS011;57934;51.532;7.684;2023-04-24T09:50:08;2.35;;;2.03;;
70467;SDS011;57934;51.532;7.684;2023-04-24T09:52:34;1.63;;;1.50;;
70467;SDS011;57934;51.532;7.684;2023-04-24T09:55:00;1.70;;;1.42;;
70467;SDS011;57934;51.532;7.684;2023-04-24T09:57:26;1.33;;;1.23;;
70467;SDS011;57934;51.532;7.684;2023-04-24T09:59:52;4.20;;;1.77;;
70467;SDS011;57934;51.532;7.684;2023-04-24T10:02:19;4.18;;;1.88;;
70467;SDS011;57934;51.532;7.684;2023-04-24T10:04:55;4.00;;;2.13;;
70467;SDS011;57934;51.532;7.684;2023-04-24T10:07:22;2.55;;;2.35;;
70467;SDS011;57934;51.532;7.684;2023-04-24T10:09:48;4.43;;;2.40;;
70467;SDS011;57934;51.532;7.684;2023-04-24T10:12:13;2.70;;;2.50;;
70467;SDS011;57934;51.532;7.684;2023-04-24T10:14:40;2.40;;;2.17;;
70467;SDS011;57934;51.532;7.684;2023-04-24T10:17:06;2.40;;;2.20;;
70467;SDS011;57934;51.532;7.684;2023-04-24T10:19:32;2.20;;;2.00;;
70467;SDS011;57934;51.532;7.684;2023-04-24T10:21:58;2.33;;;2.13;;
70467;SDS011;57934;51.532;7.684;2023-04-24T10:24:24;2.70;;;2.50;;
70467;SDS011;57934;51.532;7.684;2023-04-24T10:26:50;5.25;;;2.88;;
70467;SDS011;57934;51.532;7.684;2023-04-24T10:29:17;2.50;;;2.40;;
70467;SDS011;57934;51.532;7.684;2023-04-24T10:31:43;2.53;;;2.33;;
70467;SDS011;57934;51.532;7.684;2023-04-24T10:34:11;2.20;;;1.92;;
70467;SDS011;57934;51.532;7.684;2023-04-24T10:36:40;2.72;;;2.00;;
70467;SDS011;57934;51.532;7.684;2023-04-24T10:39:07;2.38;;;1.90;;
70467;SDS011;57934;51.532;7.684;2023-04-24T10:41:33;2.25;;;1.92;;
70467;SDS011;57934;51.532;7.684;2023-04-24T10:46:31;3.83;;;1.90;;
70467;SDS011;57934;51.532;7.684;2023-04-24T10:48:57;3.63;;;2.20;;
70467;SDS011;57934;51.532;7.684;2023-04-24T10:51:24;2.78;;;2.05;;
70467;SDS011;57934;51.532;7.684;2023-04-24T10:53:50;3.35;;;2.80;;
70467;SDS011;57934;51.532;7.684;2023-04-24T10:56:16;2.58;;;2.22;;
70467;SDS011;57934;51.532;7.684;2023-04-24T10:58:43;2.88;;;1.92;;
70467;SDS011;57934;51.532;7.684;2023-04-24T11:01:31;2.35;;;1.98;;
70467;SDS011;57934;51.532;7.684;2023-04-24T11:04:02;6.20;;;3.10;;
70467;SDS011;57934;51.532;7.684;2023-04-24T11:06:31;3.47;;;2.67;;
70467;SDS011;57934;51.532;7.684;2023-04-24T11:09:01;5.00;;;3.13;;
70467;SDS011;57934;51.532;7.684;2023-04-24T11:11:28;5.57;;;3.78;;
70467;SDS011;57934;51.532;7.684;2023-04-24T11:16:20;6.05;;;4.38;;
70467;SDS011;57934;51.532;7.684;2023-04-24T11:18:50;5.32;;;3.85;;
70467;SDS011;57934;51.532;7.684;2023-04-24T11:21:18;6.57;;;4.13;;
70467;SDS011;57934;51.532;7.684;2023-04-24T11:23:45;5.95;;;4.15;;
70467;SDS011;57934;51.532;7.684;2023-04-24T11:26:21;7.28;;;4.47;;
70467;SDS011;57934;51.532;7.684;2023-04-24T11:28:50;7.18;;;3.90;;
70467;SDS011;57934;51.532;7.684;2023-04-24T11:31:34;6.20;;;4.07;;
70467;SDS011;57934;51.532;7.684;2023-04-24T11:34:11;8.52;;;4.80;;
70467;SDS011;57934;51.532;7.684;2023-04-24T11:36:37;8.30;;;5.22;;
70467;SDS011;57934;51.532;7.684;2023-04-24T11:39:03;9.00;;;5.60;;
70467;SDS011;57934;51.532;7.684;2023-04-24T11:41:29;8.32;;;5.40;;
70467;SDS011;57934;51.532;7.684;2023-04-24T11:43:55;10.60;;;5.90;;
70467;SDS011;57934;51.532;7.684;2023-04-24T11:46:21;8.77;;;6.07;;
70467;SDS011;57934;51.532;7.684;2023-04-24T11:48:47;10.85;;;6.55;;
70467;SDS011;57934;51.532;7.684;2023-04-24T11:51:13;13.88;;;6.90;;
70467;SDS011;57934;51.532;7.684;2023-04-24T11:53:39;10.48;;;7.70;;
70467;SDS011;57934;51.532;7.684;2023-04-24T11:56:05;13.55;;;8.27;;
70467;SDS011;57934;51.532;7.684;2023-04-24T11:58:34;19.85;;;8.85;;
70467;SDS011;57934;51.532;7.684;2023-04-24T12:01:00;21.60;;;8.82;;
70467;SDS011;57934;51.532;7.684;2023-04-24T12:03:26;18.33;;;9.05;;
70467;SDS011;57934;51.532;7.684;2023-04-24T12:05:52;16.90;;;8.93;;
70467;SDS011;57934;51.532;7.684;2023-04-24T12:08:27;14.57;;;8.07;;
70467;SDS011;57934;51.532;7.684;2023-04-24T12:10:54;19.38;;;9.18;;
70467;SDS011;57934;51.532;7.684;2023-04-24T12:13:19;13.95;;;7.95;;
70467;SDS011;57934;51.532;7.684;2023-04-24T12:15:45;19.55;;;8.95;;
70467;SDS011;57934;51.532;7.684;2023-04-24T12:18:11;14.63;;;8.38;;
70467;SDS011;57934;51.532;7.684;2023-04-24T12:20:40;16.73;;;8.55;;
70467;SDS011;57934;51.532;7.684;2023-04-24T12:23:06;25.02;;;9.85;;
70467;SDS011;57934;51.532;7.684;2023-04-24T12:25:32;20.33;;;10.23;;
70467;SDS011;57934;51.532;7.684;2023-04-24T12:30:30;23.30;;;11.25;;
70467;SDS011;57934;51.532;7.684;2023-04-24T12:32:57;21.17;;;10.65;;
70467;SDS011;57934;51.532;7.684;2023-04-24T12:35:23;20.45;;;10.98;;
70467;SDS011;57934;51.532;7.684;2023-04-24T12:37:49;27.13;;;11.73;;
70467;SDS011;57934;51.532;7.684;2023-04-24T12:40:16;23.98;;;11.50;;
70467;SDS011;57934;51.532;7.684;2023-04-24T12:42:43;19.52;;;11.00;;
70467;SDS011;57934;51.532;7.684;2023-04-24T12:45:09;18.83;;;11.05;;
70467;SDS011;57934;51.532;7.684;2023-04-24T12:47:34;20.08;;;9.35;;
70467;SDS011;57934;51.532;7.684;2023-04-24T12:50:01;25.13;;;10.30;;
70467;SDS011;57934;51.532;7.684;2023-04-24T12:52:27;19.35;;;8.68;;
70467;SDS011;57934;51.532;7.684;2023-04-24T12:54:54;20.15;;;8.35;;
70467;SDS011;57934;51.532;7.684;2023-04-24T12:57:21;15.73;;;8.48;;
70467;SDS011;57934;51.532;7.684;2023-04-24T12:59:46;18.50;;;8.65;;
70467;SDS011;57934;51.532;7.684;2023-04-24T13:02:12;18.30;;;6.57;;
70467;SDS011;57934;51.532;7.684;2023-04-24T13:04:38;11.70;;;5.53;;
70467;SDS011;57934;51.532;7.684;2023-04-24T13:07:04;11.85;;;6.30;;
70467;SDS011;57934;51.532;7.684;2023-04-24T13:09:30;15.30;;;7.53;;
70467;SDS011;57934;51.532;7.684;2023-04-24T13:11:56;11.82;;;6.13;;
70467;SDS011;57934;51.532;7.684;2023-04-24T13:14:22;14.05;;;6.18;;
70467;SDS011;57934;51.532;7.684;2023-04-24T13:16:48;14.38;;;6.00;;
70467;SDS011;57934;51.532;7.684;2023-04-24T13:19:13;10.48;;;6.07;;
70467;SDS011;57934;51.532;7.684;2023-04-24T13:21:39;12.73;;;5.10;;
70467;SDS011;57934;51.532;7.684;2023-04-24T13:24:05;14.77;;;5.45;;
70467;SDS011;57934;51.532;7.684;2023-04-24T13:26:31;9.73;;;4.95;;
70467;SDS011;57934;51.532;7.684;2023-04-24T13:28:56;9.80;;;5.30;;
70467;SDS011;57934;51.532;7.684;2023-04-24T13:31:22;9.35;;;4.30;;
70467;SDS011;57934;51.532;7.684;2023-04-24T13:33:48;13.98;;;4.95;;
70467;SDS011;57934;51.532;7.684;2023-04-24T13:36:13;7.03;;;4.63;;
70467;SDS011;57934;51.532;7.684;2023-04-24T13:38:39;11.68;;;5.03;;
70467;SDS011;57934;51.532;7.684;2023-04-24T13:41:05;8.85;;;4.43;;
70467;SDS011;57934;51.532;7.684;2023-04-24T13:43:30;6.75;;;4.40;;
70467;SDS011;57934;51.532;7.684;2023-04-24T13:45:56;12.10;;;4.70;;
70467;SDS011;57934;51.532;7.684;2023-04-24T13:48:22;10.40;;;5.00;;
70467;SDS011;57934;51.532;7.684;2023-04-24T13:50:47;10.68;;;4.80;;
70467;SDS011;57934;51.532;7.684;2023-04-24T13:53:15;9.00;;;4.75;;
70467;SDS011;57934;51.532;7.684;2023-04-24T13:55:40;7.72;;;3.60;;
70467;SDS011;57934;51.532;7.684;2023-04-24T13:58:06;7.95;;;4.50;;
70467;SDS011;57934;51.532;7.684;2023-04-24T14:00:32;8.77;;;4.45;;
70467;SDS011;57934;51.532;7.684;2023-04-24T14:02:58;12.30;;;3.92;;
70467;SDS011;57934;51.532;7.684;2023-04-24T14:05:24;7.32;;;3.78;;
70467;SDS011;57934;51.532;7.684;2023-04-24T14:07:50;7.60;;;4.18;;
70467;SDS011;57934;51.532;7.684;2023-04-24T14:10:16;9.45;;;3.80;;
70467;SDS011;57934;51.532;7.684;2023-04-24T14:12:42;5.07;;;3.40;;
70467;SDS011;57934;51.532;7.684;2023-04-24T14:15:07;5.10;;;3.40;;
70467;SDS011;57934;51.532;7.684;2023-04-24T14:17:34;6.95;;;3.40;;
70467;SDS011;57934;51.532;7.684;2023-04-24T14:19:59;8.38;;;3.53;;
70467;SDS011;57934;51.532;7.684;2023-04-24T14:22:26;7.10;;;3.28;;
70467;SDS011;57934;51.532;7.684;2023-04-24T14:24:51;7.78;;;3.40;;
70467;SDS011;57934;51.532;7.684;2023-04-24T14:27:17;4.57;;;3.20;;
70467;SDS011;57934;51.532;7.684;2023-04-24T14:29:43;7.10;;;3.08;;
70467;SDS011;57934;51.532;7.684;2023-04-24T14:32:10;6.13;;;3.20;;
70467;SDS011;57934;51.532;7.684;2023-04-24T14:34:36;7.53;;;3.05;;
70467;SDS011;57934;51.532;7.684;2023-04-24T14:37:01;5.03;;;2.35;;
70467;SDS011;57934;51.532;7.684;2023-04-24T14:39:28;4.00;;;2.30;;
70467;SDS011;57934;51.532;7.684;2023-04-24T14:41:53;5.72;;;2.25;;
70467;SDS011;57934;51.532;7.684;2023-04-24T14:44:19;5.35;;;2.35;;
70467;SDS011;57934;51.532;7.684;2023-04-24T14:46:45;4.05;;;2.10;;
70467;SDS011;57934;51.532;7.684;2023-04-24T14:49:10;5.88;;;3.50;;
70467;SDS011;57934;51.532;7.684;2023-04-24T14:51:37;4.30;;;2.17;;
70467;SDS011;57934;51.532;7.684;2023-04-24T14:54:03;5.13;;;2.47;;
70467;SDS011;57934;51.532;7.684;2023-04-24T14:56:29;6.07;;;2.58;;
70467;SDS011;57934;51.532;7.684;2023-04-24T14:58:55;5.90;;;2.70;;
70467;SDS011;57934;51.532;7.684;2023-04-24T15:01:21;3.60;;;2.63;;
70467;SDS011;57934;51.532;7.684;2023-04-24T15:03:46;4.00;;;2.40;;
70467;SDS011;57934;51.532;7.684;2023-04-24T15:06:12;3.30;;;1.90;;
70467;SDS011;57934;51.532;7.684;2023-04-24T15:08:38;11.52;;;3.15;;
70467;SDS011;57934;51.532;7.684;2023-04-24T15:11:04;4.32;;;1.75;;
70467;SDS011;57934;51.532;7.684;2023-04-24T15:13:29;6.13;;;2.25;;
70467;SDS011;57934;51.532;7.684;2023-04-24T15:15:55;4.65;;;2.20;;
70467;SDS011;57934;51.532;7.684;2023-04-24T15:18:21;7.35;;;2.38;;
70467;SDS011;57934;51.532;7.684;2023-04-24T15:20:47;5.55;;;2.72;;
70467;SDS011;57934;51.532;7.684;2023-04-24T15:23:12;4.30;;;2.80;;